sensor_id;sensor_type;location;lat;lon;timestamp;temperature;humidity
7296;DHT22;40758;54.038;11.684;2023-02-18T00:00:13;7.30;99.90
7296;DHT22;40758;54.038;11.684;2023-02-18T00:02:44;7.20;99.90
7296;DHT22;40758;54.038;11.684;2023-02-18T00:05:14;7.20;99.90
7296;DHT22;40758;54.038;11.684;2023-02-18T00:07:44;7.10;99.90
7296;DHT22;40758;54.038;11.684;2023-02-18T00:10:13;7.00;99.90
7296;DHT22;40758;54.038;11.684;2023-02-18T00:12:44;7.00;99.90
7296;DHT22;40758;54.038;11.684;2023-02-18T00:15:13;7.00;99.90
7296;DHT22;40758;54.038;11.684;2023-02-18T00:17:41;7.00;99.90
7296;DHT22;40758;54.038;11.684;2023-02-18T00:20:10;7.00;99.90
7296;DHT22;40758;54.038;11.684;2023-02-18T00:22:40;6.90;99.90
7296;DHT22;40758;54.038;11.684;2023-02-18T00:25:09;6.90;99.90
7296;DHT22;40758;54.038;11.684;2023-02-18T00:27:38;6.90;99.90
7296;DHT22;40758;54.038;11.684;2023-02-18T00:30:09;6.80;99.90
7296;DHT22;40758;54.038;11.684;2023-02-18T00:32:40;6.80;99.90
7296;DHT22;40758;54.038;11.684;2023-02-18T00:35:08;6.80;99.90
7296;DHT22;40758;54.038;11.684;2023-02-18T00:37:37;6.90;99.90
7296;DHT22;40758;54.038;11.684;2023-02-18T00:40:07;6.80;99.90
7296;DHT22;40758;54.038;11.684;2023-02-18T00:42:36;6.80;99.90
7296;DHT22;40758;54.038;11.684;2023-02-18T00:45:06;6.80;99.90
7296;DHT22;40758;54.038;11.684;2023-02-18T00:47:37;6.80;99.90
7296;DHT22;40758;54.038;11.684;2023-02-18T00:50:08;6.80;99.90
7296;DHT22;40758;54.038;11.684;2023-02-18T00:52:38;6.80;99.90
7296;DHT22;40758;54.038;11.684;2023-02-18T00:55:07;6.80;99.90
7296;DHT22;40758;54.038;11.684;2023-02-18T00:57:35;6.80;99.90
7296;DHT22;40758;54.038;11.684;2023-02-18T01:00:05;6.80;99.90
7296;DHT22;40758;54.038;11.684;2023-02-18T01:02:36;6.90;99.90
7296;DHT22;40758;54.038;11.684;2023-02-18T01:05:05;6.90;99.90
7296;DHT22;40758;54.038;11.684;2023-02-18T01:07:33;6.90;99.90
7296;DHT22;40758;54.038;11.684;2023-02-18T01:10:02;7.00;99.90
7296;DHT22;40758;54.038;11.684;2023-02-18T01:12:31;7.00;99.90
7296;DHT22;40758;54.038;11.684;2023-02-18T01:14:59;7.00;99.90
7296;DHT22;40758;54.038;11.684;2023-02-18T01:17:28;7.00;99.90
7296;DHT22;40758;54.038;11.684;2023-02-18T01:19:58;7.00;99.90
7296;DHT22;40758;54.038;11.684;2023-02-18T01:22:26;7.10;99.90
7296;DHT22;40758;54.038;11.684;2023-02-18T01:24:55;7.10;99.90
7296;DHT22;40758;54.038;11.684;2023-02-18T01:27:24;7.10;99.90
7296;DHT22;40758;54.038;11.684;2023-02-18T01:29:53;6.90;99.90
7296;DHT22;40758;54.038;11.684;2023-02-18T01:32:21;6.90;99.90
7296;DHT22;40758;54.038;11.684;2023-02-18T01:34:50;6.80;99.90
7296;DHT22;40758;54.038;11.684;2023-02-18T01:37:19;6.80;99.90
7296;DHT22;40758;54.038;11.684;2023-02-18T01:39:48;6.80;99.90
7296;DHT22;40758;54.038;11.684;2023-02-18T01:42:18;6.80;99.90
7296;DHT22;40758;54.038;11.684;2023-02-18T01:44:49;6.80;99.90
7296;DHT22;40758;54.038;11.684;2023-02-18T01:47:18;6.80;99.90
7296;DHT22;40758;54.038;11.684;2023-02-18T01:49:51;6.80;99.90
7296;DHT22;40758;54.038;11.684;2023-02-18T01:52:24;6.80;99.90
7296;DHT22;40758;54.038;11.684;2023-02-18T01:54:58;6.80;99.90
7296;DHT22;40758;54.038;11.684;2023-02-18T01:57:30;6.70;99.90
7296;DHT22;40758;54.038;11.684;2023-02-18T02:00:04;6.70;99.90
7296;DHT22;40758;54.038;11.684;2023-02-18T02:02:41;6.70;99.90
7296;DHT22;40758;54.038;11.684;2023-02-18T02:05:12;6.70;99.90
7296;DHT22;40758;54.038;11.684;2023-02-18T02:07:44;6.70;99.90
7296;DHT22;40758;54.038;11.684;2023-02-18T02:10:14;6.60;99.90
7296;DHT22;40758;54.038;11.684;2023-02-18T02:12:53;6.60;99.90
7296;DHT22;40758;54.038;11.684;2023-02-18T02:15:33;6.50;99.90
7296;DHT22;40758;54.038;11.684;2023-02-18T02:18:38;6.50;99.90
7296;DHT22;40758;54.038;11.684;2023-02-18T02:25:04;6.50;99.90
7296;DHT22;40758;54.038;11.684;2023-02-18T02:28:11;6.50;99.90
7296;DHT22;40758;54.038;11.684;2023-02-18T02:31:28;6.50;99.90
7296;DHT22;40758;54.038;11.684;2023-02-18T02:34:33;6.40;99.90
7296;DHT22;40758;54.038;11.684;2023-02-18T02:37:20;6.40;99.90
7296;DHT22;40758;54.038;11.684;2023-02-18T02:40:06;6.40;99.90
7296;DHT22;40758;54.038;11.684;2023-02-18T02:42:58;6.40;99.90
7296;DHT22;40758;54.038;11.684;2023-02-18T02:45:45;6.40;99.90
7296;DHT22;40758;54.038;11.684;2023-02-18T02:48:27;6.40;99.90
7296;DHT22;40758;54.038;11.684;2023-02-18T02:51:05;6.40;99.90
7296;DHT22;40758;54.038;11.684;2023-02-18T02:53:40;6.40;99.90
7296;DHT22;40758;54.038;11.684;2023-02-18T02:59:52;6.40;99.90
7296;DHT22;40758;54.038;11.684;2023-02-18T03:02:32;6.40;99.90
7296;DHT22;40758;54.038;11.684;2023-02-18T03:05:14;6.30;99.90
7296;DHT22;40758;54.038;11.684;2023-02-18T03:08:08;6.40;99.90
7296;DHT22;40758;54.038;11.684;2023-02-18T03:10:55;6.40;99.90
7296;DHT22;40758;54.038;11.684;2023-02-18T03:13:41;6.40;99.90
7296;DHT22;40758;54.038;11.684;2023-02-18T03:16:26;6.40;99.90
7296;DHT22;40758;54.038;11.684;2023-02-18T03:19:07;6.30;99.90
7296;DHT22;40758;54.038;11.684;2023-02-18T03:21:43;6.30;99.90
7296;DHT22;40758;54.038;11.684;2023-02-18T03:24:23;6.30;99.90
7296;DHT22;40758;54.038;11.684;2023-02-18T03:26:59;6.30;99.90
7296;DHT22;40758;54.038;11.684;2023-02-18T03:29:34;6.30;99.90
7296;DHT22;40758;54.038;11.684;2023-02-18T03:32:06;6.30;99.90
7296;DHT22;40758;54.038;11.684;2023-02-18T03:34:41;6.30;99.90
7296;DHT22;40758;54.038;11.684;2023-02-18T03:37:15;6.30;99.90
7296;DHT22;40758;54.038;11.684;2023-02-18T03:39:49;6.30;99.90
7296;DHT22;40758;54.038;11.684;2023-02-18T03:42:24;6.30;99.90
7296;DHT22;40758;54.038;11.684;2023-02-18T03:44:54;6.30;99.90
7296;DHT22;40758;54.038;11.684;2023-02-18T03:47:23;6.30;99.90
7296;DHT22;40758;54.038;11.684;2023-02-18T03:49:52;6.30;99.90
7296;DHT22;40758;54.038;11.684;2023-02-18T03:52:20;6.40;99.90
7296;DHT22;40758;54.038;11.684;2023-02-18T03:54:50;6.30;99.90
7296;DHT22;40758;54.038;11.684;2023-02-18T03:57:18;6.30;99.90
7296;DHT22;40758;54.038;11.684;2023-02-18T03:59:47;6.30;99.90
7296;DHT22;40758;54.038;11.684;2023-02-18T04:02:15;6.30;99.90
7296;DHT22;40758;54.038;11.684;2023-02-18T04:04:43;6.30;99.90
7296;DHT22;40758;54.038;11.684;2023-02-18T04:07:12;6.30;99.90
7296;DHT22;40758;54.038;11.684;2023-02-18T04:09:40;6.30;99.90
7296;DHT22;40758;54.038;11.684;2023-02-18T04:12:10;6.40;99.90
7296;DHT22;40758;54.038;11.684;2023-02-18T04:14:38;6.40;99.90
7296;DHT22;40758;54.038;11.684;2023-02-18T04:17:07;6.40;99.90
7296;DHT22;40758;54.038;11.684;2023-02-18T04:19:38;6.50;99.90
7296;DHT22;40758;54.038;11.684;2023-02-18T04:22:07;6.40;99.90
7296;DHT22;40758;54.038;11.684;2023-02-18T04:24:37;6.40;99.90
7296;DHT22;40758;54.038;11.684;2023-02-18T04:27:06;6.50;99.90
7296;DHT22;40758;54.038;11.684;2023-02-18T04:29:36;6.50;99.90
7296;DHT22;40758;54.038;11.684;2023-02-18T04:32:05;6.50;99.90
7296;DHT22;40758;54.038;11.684;2023-02-18T04:34:34;6.50;99.90
7296;DHT22;40758;54.038;11.684;2023-02-18T04:37:02;6.40;99.90
7296;DHT22;40758;54.038;11.684;2023-02-18T04:39:31;6.40;99.90
7296;DHT22;40758;54.038;11.684;2023-02-18T04:41:59;6.40;99.90
7296;DHT22;40758;54.038;11.684;2023-02-18T04:44:27;6.40;99.90
7296;DHT22;40758;54.038;11.684;2023-02-18T04:46:57;6.40;99.90
7296;DHT22;40758;54.038;11.684;2023-02-18T04:49:25;6.50;99.90
7296;DHT22;40758;54.038;11.684;2023-02-18T04:51:54;6.50;99.90
7296;DHT22;40758;54.038;11.684;2023-02-18T04:54:22;6.50;99.90
7296;DHT22;40758;54.038;11.684;2023-02-18T04:56:51;6.50;99.90
7296;DHT22;40758;54.038;11.684;2023-02-18T04:59:19;6.50;99.90
7296;DHT22;40758;54.038;11.684;2023-02-18T05:01:47;6.50;99.90
7296;DHT22;40758;54.038;11.684;2023-02-18T05:04:17;6.40;99.90
7296;DHT22;40758;54.038;11.684;2023-02-18T05:06:45;6.40;99.90
7296;DHT22;40758;54.038;11.684;2023-02-18T05:09:14;6.40;99.90
7296;DHT22;40758;54.038;11.684;2023-02-18T05:11:43;6.40;99.90
7296;DHT22;40758;54.038;11.684;2023-02-18T05:14:13;6.40;99.90
7296;DHT22;40758;54.038;11.684;2023-02-18T05:16:41;6.40;99.90
7296;DHT22;40758;54.038;11.684;2023-02-18T05:19:13;6.40;99.90
7296;DHT22;40758;54.038;11.684;2023-02-18T05:21:44;6.40;99.90
7296;DHT22;40758;54.038;11.684;2023-02-18T05:24:12;6.40;99.90
7296;DHT22;40758;54.038;11.684;2023-02-18T05:26:40;6.40;99.90
7296;DHT22;40758;54.038;11.684;2023-02-18T05:29:10;6.40;99.90
7296;DHT22;40758;54.038;11.684;2023-02-18T05:31:38;6.50;99.90
7296;DHT22;40758;54.038;11.684;2023-02-18T05:34:07;6.50;99.90
7296;DHT22;40758;54.038;11.684;2023-02-18T05:36:36;6.50;99.90
7296;DHT22;40758;54.038;11.684;2023-02-18T05:39:05;6.50;99.90
7296;DHT22;40758;54.038;11.684;2023-02-18T05:41:34;6.50;99.90
7296;DHT22;40758;54.038;11.684;2023-02-18T05:44:02;6.40;99.90
7296;DHT22;40758;54.038;11.684;2023-02-18T05:46:48;6.40;99.90
7296;DHT22;40758;54.038;11.684;2023-02-18T05:49:16;6.30;99.90
7296;DHT22;40758;54.038;11.684;2023-02-18T05:51:45;6.30;99.90
7296;DHT22;40758;54.038;11.684;2023-02-18T05:54:14;6.20;99.90
7296;DHT22;40758;54.038;11.684;2023-02-18T05:56:43;6.20;99.90
7296;DHT22;40758;54.038;11.684;2023-02-18T05:59:11;6.20;99.90
7296;DHT22;40758;54.038;11.684;2023-02-18T06:01:40;6.20;99.90
7296;DHT22;40758;54.038;11.684;2023-02-18T06:04:08;6.30;99.90
7296;DHT22;40758;54.038;11.684;2023-02-18T06:06:38;6.30;99.90
7296;DHT22;40758;54.038;11.684;2023-02-18T06:09:07;6.30;99.90
7296;DHT22;40758;54.038;11.684;2023-02-18T06:11:38;6.30;99.90
7296;DHT22;40758;54.038;11.684;2023-02-18T06:14:08;6.20;99.90
7296;DHT22;40758;54.038;11.684;2023-02-18T06:16:37;6.10;99.90
7296;DHT22;40758;54.038;11.684;2023-02-18T06:19:05;6.10;99.90
7296;DHT22;40758;54.038;11.684;2023-02-18T06:21:34;6.10;99.90
7296;DHT22;40758;54.038;11.684;2023-02-18T06:24:02;6.10;99.90
7296;DHT22;40758;54.038;11.684;2023-02-18T06:26:31;6.10;99.90
7296;DHT22;40758;54.038;11.684;2023-02-18T06:29:02;6.10;99.90
7296;DHT22;40758;54.038;11.684;2023-02-18T06:31:31;6.10;99.90
7296;DHT22;40758;54.038;11.684;2023-02-18T06:33:59;6.10;99.90
7296;DHT22;40758;54.038;11.684;2023-02-18T06:36:28;6.10;99.90
7296;DHT22;40758;54.038;11.684;2023-02-18T06:38:56;6.10;99.90
7296;DHT22;40758;54.038;11.684;2023-02-18T06:41:25;6.20;99.90
7296;DHT22;40758;54.038;11.684;2023-02-18T06:43:53;6.20;99.90
7296;DHT22;40758;54.038;11.684;2023-02-18T06:46:23;6.30;99.90
7296;DHT22;40758;54.038;11.684;2023-02-18T06:48:51;6.30;99.90
7296;DHT22;40758;54.038;11.684;2023-02-18T06:51:20;6.30;99.90
7296;DHT22;40758;54.038;11.684;2023-02-18T06:53:48;6.40;99.90
7296;DHT22;40758;54.038;11.684;2023-02-18T06:56:17;6.40;99.90
7296;DHT22;40758;54.038;11.684;2023-02-18T06:58:45;6.40;99.90
7296;DHT22;40758;54.038;11.684;2023-02-18T07:01:13;6.50;99.90
7296;DHT22;40758;54.038;11.684;2023-02-18T07:03:43;6.50;99.90
7296;DHT22;40758;54.038;11.684;2023-02-18T07:06:15;6.50;99.90
7296;DHT22;40758;54.038;11.684;2023-02-18T07:08:44;6.60;99.90
7296;DHT22;40758;54.038;11.684;2023-02-18T07:11:13;6.60;99.90
7296;DHT22;40758;54.038;11.684;2023-02-18T07:13:42;6.60;99.90
7296;DHT22;40758;54.038;11.684;2023-02-18T07:16:11;6.60;99.90
7296;DHT22;40758;54.038;11.684;2023-02-18T07:18:40;6.60;99.90
7296;DHT22;40758;54.038;11.684;2023-02-18T07:21:10;6.60;99.90
7296;DHT22;40758;54.038;11.684;2023-02-18T07:23:38;6.60;99.90
7296;DHT22;40758;54.038;11.684;2023-02-18T07:26:09;6.60;99.90
7296;DHT22;40758;54.038;11.684;2023-02-18T07:28:40;6.70;99.90
7296;DHT22;40758;54.038;11.684;2023-02-18T07:31:10;6.60;99.90
7296;DHT22;40758;54.038;11.684;2023-02-18T07:33:40;6.60;99.90
7296;DHT22;40758;54.038;11.684;2023-02-18T07:36:10;6.70;99.90
7296;DHT22;40758;54.038;11.684;2023-02-18T07:38:39;6.70;99.90
7296;DHT22;40758;54.038;11.684;2023-02-18T07:41:15;6.70;99.90
7296;DHT22;40758;54.038;11.684;2023-02-18T07:43:45;6.80;99.90
7296;DHT22;40758;54.038;11.684;2023-02-18T07:46:13;6.80;99.90
7296;DHT22;40758;54.038;11.684;2023-02-18T07:48:42;6.80;99.90
7296;DHT22;40758;54.038;11.684;2023-02-18T07:51:13;6.80;99.90
7296;DHT22;40758;54.038;11.684;2023-02-18T07:53:41;6.80;99.90
7296;DHT22;40758;54.038;11.684;2023-02-18T07:56:10;6.90;99.90
7296;DHT22;40758;54.038;11.684;2023-02-18T07:58:38;6.90;99.90
7296;DHT22;40758;54.038;11.684;2023-02-18T08:01:10;6.90;99.90
7296;DHT22;40758;54.038;11.684;2023-02-18T08:03:41;6.90;99.90
7296;DHT22;40758;54.038;11.684;2023-02-18T08:06:20;6.90;99.90
7296;DHT22;40758;54.038;11.684;2023-02-18T08:08:52;6.90;99.90
7296;DHT22;40758;54.038;11.684;2023-02-18T08:11:20;6.90;99.90
7296;DHT22;40758;54.038;11.684;2023-02-18T08:13:49;7.00;99.90
7296;DHT22;40758;54.038;11.684;2023-02-18T08:16:18;6.90;99.90
7296;DHT22;40758;54.038;11.684;2023-02-18T08:18:48;6.90;99.90
7296;DHT22;40758;54.038;11.684;2023-02-18T08:21:20;6.90;99.90
7296;DHT22;40758;54.038;11.684;2023-02-18T08:23:52;6.90;99.90
7296;DHT22;40758;54.038;11.684;2023-02-18T08:26:20;6.90;99.90
7296;DHT22;40758;54.038;11.684;2023-02-18T08:28:49;6.90;99.90
7296;DHT22;40758;54.038;11.684;2023-02-18T08:31:20;7.00;99.90
7296;DHT22;40758;54.038;11.684;2023-02-18T08:33:49;7.00;99.90
7296;DHT22;40758;54.038;11.684;2023-02-18T08:36:20;7.10;99.90
7296;DHT22;40758;54.038;11.684;2023-02-18T08:38:49;7.00;99.90
7296;DHT22;40758;54.038;11.684;2023-02-18T08:41:18;6.90;99.90
7296;DHT22;40758;54.038;11.684;2023-02-18T08:43:47;6.80;99.90
7296;DHT22;40758;54.038;11.684;2023-02-18T08:46:16;6.60;99.90
7296;DHT22;40758;54.038;11.684;2023-02-18T08:49:01;6.60;99.90
7296;DHT22;40758;54.038;11.684;2023-02-18T08:51:33;6.50;99.90
7296;DHT22;40758;54.038;11.684;2023-02-18T08:54:02;6.50;99.90
7296;DHT22;40758;54.038;11.684;2023-02-18T08:56:30;6.50;99.90
7296;DHT22;40758;54.038;11.684;2023-02-18T08:58:59;6.50;99.90
7296;DHT22;40758;54.038;11.684;2023-02-18T09:01:27;6.50;99.90
7296;DHT22;40758;54.038;11.684;2023-02-18T09:03:56;6.50;99.90
7296;DHT22;40758;54.038;11.684;2023-02-18T09:06:25;6.50;99.90
7296;DHT22;40758;54.038;11.684;2023-02-18T09:08:55;6.50;99.90
7296;DHT22;40758;54.038;11.684;2023-02-18T09:11:23;6.50;99.90
7296;DHT22;40758;54.038;11.684;2023-02-18T09:13:52;6.40;99.90
7296;DHT22;40758;54.038;11.684;2023-02-18T09:16:20;6.40;99.90
7296;DHT22;40758;54.038;11.684;2023-02-18T09:18:52;6.40;99.90
7296;DHT22;40758;54.038;11.684;2023-02-18T09:21:21;6.40;99.90
7296;DHT22;40758;54.038;11.684;2023-02-18T09:23:50;6.40;99.90
7296;DHT22;40758;54.038;11.684;2023-02-18T09:26:22;6.40;99.90
7296;DHT22;40758;54.038;11.684;2023-02-18T09:28:55;6.30;99.90
7296;DHT22;40758;54.038;11.684;2023-02-18T09:31:25;6.20;99.90
7296;DHT22;40758;54.038;11.684;2023-02-18T09:33:57;6.20;99.90
7296;DHT22;40758;54.038;11.684;2023-02-18T09:36:27;6.20;99.90
7296;DHT22;40758;54.038;11.684;2023-02-18T09:38:56;6.30;99.90
7296;DHT22;40758;54.038;11.684;2023-02-18T09:41:33;6.30;99.90
7296;DHT22;40758;54.038;11.684;2023-02-18T09:44:11;6.30;99.90
7296;DHT22;40758;54.038;11.684;2023-02-18T09:46:49;6.30;99.90
7296;DHT22;40758;54.038;11.684;2023-02-18T09:49:23;6.50;99.90
7296;DHT22;40758;54.038;11.684;2023-02-18T09:51:54;6.60;99.90
7296;DHT22;40758;54.038;11.684;2023-02-18T09:54:26;6.70;99.90
7296;DHT22;40758;54.038;11.684;2023-02-18T09:56:56;6.90;99.90
7296;DHT22;40758;54.038;11.684;2023-02-18T09:59:27;6.90;99.90
7296;DHT22;40758;54.038;11.684;2023-02-18T10:01:59;6.80;99.90
7296;DHT22;40758;54.038;11.684;2023-02-18T10:04:33;6.70;99.90
7296;DHT22;40758;54.038;11.684;2023-02-18T10:07:18;6.70;99.90
7296;DHT22;40758;54.038;11.684;2023-02-18T10:09:55;6.60;99.90
7296;DHT22;40758;54.038;11.684;2023-02-18T10:12:29;6.50;99.90
7296;DHT22;40758;54.038;11.684;2023-02-18T10:15:01;6.50;99.90
7296;DHT22;40758;54.038;11.684;2023-02-18T10:17:31;6.50;99.90
7296;DHT22;40758;54.038;11.684;2023-02-18T10:20:03;6.50;99.90
7296;DHT22;40758;54.038;11.684;2023-02-18T10:22:34;6.40;99.90
7296;DHT22;40758;54.038;11.684;2023-02-18T10:25:06;6.40;99.90
7296;DHT22;40758;54.038;11.684;2023-02-18T10:27:38;6.40;99.90
7296;DHT22;40758;54.038;11.684;2023-02-18T10:30:20;6.30;99.90
7296;DHT22;40758;54.038;11.684;2023-02-18T10:32:55;6.30;99.90
7296;DHT22;40758;54.038;11.684;2023-02-18T10:35:40;6.30;99.90
7296;DHT22;40758;54.038;11.684;2023-02-18T10:38:24;6.30;99.90
7296;DHT22;40758;54.038;11.684;2023-02-18T10:41:07;6.30;99.90
7296;DHT22;40758;54.038;11.684;2023-02-18T10:43:51;6.20;99.90
7296;DHT22;40758;54.038;11.684;2023-02-18T10:46:31;6.20;99.90
7296;DHT22;40758;54.038;11.684;2023-02-18T10:49:18;6.00;99.90
7296;DHT22;40758;54.038;11.684;2023-02-18T10:52:01;5.90;99.90
7296;DHT22;40758;54.038;11.684;2023-02-18T10:54:49;5.70;99.90
7296;DHT22;40758;54.038;11.684;2023-02-18T10:57:22;5.60;99.90
7296;DHT22;40758;54.038;11.684;2023-02-18T11:00:00;5.50;99.90
7296;DHT22;40758;54.038;11.684;2023-02-18T11:02:38;5.50;99.90
7296;DHT22;40758;54.038;11.684;2023-02-18T11:05:18;5.50;99.90
7296;DHT22;40758;54.038;11.684;2023-02-18T11:07:55;5.50;99.90
7296;DHT22;40758;54.038;11.684;2023-02-18T11:10:28;5.50;99.90
7296;DHT22;40758;54.038;11.684;2023-02-18T11:13:00;5.50;99.90
7296;DHT22;40758;54.038;11.684;2023-02-18T11:15:33;5.50;99.90
7296;DHT22;40758;54.038;11.684;2023-02-18T11:18:13;5.50;99.90
7296;DHT22;40758;54.038;11.684;2023-02-18T11:21:00;5.60;99.90
7296;DHT22;40758;54.038;11.684;2023-02-18T11:23:30;5.70;99.90
7296;DHT22;40758;54.038;11.684;2023-02-18T11:25:59;5.80;99.90
7296;DHT22;40758;54.038;11.684;2023-02-18T11:28:36;5.90;99.90
7296;DHT22;40758;54.038;11.684;2023-02-18T11:31:14;6.00;99.90
7296;DHT22;40758;54.038;11.684;2023-02-18T11:33:47;6.00;99.90
7296;DHT22;40758;54.038;11.684;2023-02-18T11:36:19;6.00;99.90
7296;DHT22;40758;54.038;11.684;2023-02-18T11:38:51;5.80;99.90
7296;DHT22;40758;54.038;11.684;2023-02-18T11:41:28;5.70;99.90
7296;DHT22;40758;54.038;11.684;2023-02-18T11:43:59;5.70;99.90
7296;DHT22;40758;54.038;11.684;2023-02-18T11:46:32;5.70;99.90
7296;DHT22;40758;54.038;11.684;2023-02-18T11:49:10;5.70;99.90
7296;DHT22;40758;54.038;11.684;2023-02-18T11:51:48;5.70;99.90
7296;DHT22;40758;54.038;11.684;2023-02-18T11:54:22;5.70;99.90
7296;DHT22;40758;54.038;11.684;2023-02-18T11:56:54;5.70;99.90
7296;DHT22;40758;54.038;11.684;2023-02-18T11:59:24;5.70;99.90
7296;DHT22;40758;54.038;11.684;2023-02-18T12:01:56;5.70;99.90
7296;DHT22;40758;54.038;11.684;2023-02-18T12:04:35;5.70;99.90
7296;DHT22;40758;54.038;11.684;2023-02-18T12:07:11;5.80;99.90
7296;DHT22;40758;54.038;11.684;2023-02-18T12:09:47;5.90;99.90
7296;DHT22;40758;54.038;11.684;2023-02-18T12:12:19;5.90;99.90
7296;DHT22;40758;54.038;11.684;2023-02-18T12:14:53;5.90;99.90
7296;DHT22;40758;54.038;11.684;2023-02-18T12:17:31;6.00;99.90
7296;DHT22;40758;54.038;11.684;2023-02-18T12:23:04;5.90;99.90
7296;DHT22;40758;54.038;11.684;2023-02-18T12:25:43;5.90;99.90
7296;DHT22;40758;54.038;11.684;2023-02-18T12:28:25;5.70;99.90
7296;DHT22;40758;54.038;11.684;2023-02-18T12:31:09;5.50;99.90
7296;DHT22;40758;54.038;11.684;2023-02-18T12:34:03;5.40;99.90
7296;DHT22;40758;54.038;11.684;2023-02-18T12:36:46;5.20;99.90
7296;DHT22;40758;54.038;11.684;2023-02-18T12:39:27;5.20;99.90
7296;DHT22;40758;54.038;11.684;2023-02-18T12:42:17;5.10;99.90
7296;DHT22;40758;54.038;11.684;2023-02-18T12:44:58;5.10;99.90
7296;DHT22;40758;54.038;11.684;2023-02-18T12:47:57;5.00;99.90
7296;DHT22;40758;54.038;11.684;2023-02-18T12:53:51;4.90;99.90
7296;DHT22;40758;54.038;11.684;2023-02-18T12:59:57;4.80;99.90
7296;DHT22;40758;54.038;11.684;2023-02-18T13:02:49;4.80;99.90
7296;DHT22;40758;54.038;11.684;2023-02-18T13:05:31;4.80;99.90
7296;DHT22;40758;54.038;11.684;2023-02-18T13:08:20;4.80;99.90
7296;DHT22;40758;54.038;11.684;2023-02-18T13:11:00;4.80;99.90
7296;DHT22;40758;54.038;11.684;2023-02-18T13:13:39;4.80;99.90
7296;DHT22;40758;54.038;11.684;2023-02-18T13:16:10;4.70;99.90
7296;DHT22;40758;54.038;11.684;2023-02-18T13:18:43;4.70;99.90
7296;DHT22;40758;54.038;11.684;2023-02-18T13:21:14;4.80;99.90
7296;DHT22;40758;54.038;11.684;2023-02-18T13:23:47;4.80;99.90
7296;DHT22;40758;54.038;11.684;2023-02-18T13:26:19;4.70;99.90
7296;DHT22;40758;54.038;11.684;2023-02-18T13:28:50;4.60;99.90
7296;DHT22;40758;54.038;11.684;2023-02-18T13:31:31;4.50;99.90
7296;DHT22;40758;54.038;11.684;2023-02-18T13:34:09;4.50;99.90
7296;DHT22;40758;54.038;11.684;2023-02-18T13:36:55;4.70;99.90
7296;DHT22;40758;54.038;11.684;2023-02-18T13:39:32;4.80;99.90
7296;DHT22;40758;54.038;11.684;2023-02-18T13:42:18;5.00;99.90
7296;DHT22;40758;54.038;11.684;2023-02-18T13:45:02;5.00;99.90
7296;DHT22;40758;54.038;11.684;2023-02-18T13:47:46;5.00;99.90
7296;DHT22;40758;54.038;11.684;2023-02-18T13:50:22;5.00;99.90
7296;DHT22;40758;54.038;11.684;2023-02-18T13:55:47;4.90;99.90
7296;DHT22;40758;54.038;11.684;2023-02-18T13:58:20;4.80;99.90
7296;DHT22;40758;54.038;11.684;2023-02-18T14:00:52;4.70;99.90
7296;DHT22;40758;54.038;11.684;2023-02-18T14:03:33;4.60;99.90
7296;DHT22;40758;54.038;11.684;2023-02-18T14:06:13;4.60;99.90
7296;DHT22;40758;54.038;11.684;2023-02-18T14:08:43;4.60;99.90
7296;DHT22;40758;54.038;11.684;2023-02-18T14:11:33;4.80;99.90
7296;DHT22;40758;54.038;11.684;2023-02-18T14:20:28;5.50;99.90
7296;DHT22;40758;54.038;11.684;2023-02-18T14:26:23;6.00;99.90
7296;DHT22;40758;54.038;11.684;2023-02-18T14:28:57;6.20;99.90
7296;DHT22;40758;54.038;11.684;2023-02-18T14:31:33;6.10;99.90
7296;DHT22;40758;54.038;11.684;2023-02-18T14:34:17;5.80;99.90
7296;DHT22;40758;54.038;11.684;2023-02-18T14:37:03;5.60;99.90
7296;DHT22;40758;54.038;11.684;2023-02-18T14:39:44;5.40;99.90
7296;DHT22;40758;54.038;11.684;2023-02-18T14:42:23;5.40;99.90
7296;DHT22;40758;54.038;11.684;2023-02-18T14:45:10;5.40;99.90
7296;DHT22;40758;54.038;11.684;2023-02-18T14:47:52;5.40;99.90
7296;DHT22;40758;54.038;11.684;2023-02-18T14:50:34;5.70;99.90
7296;DHT22;40758;54.038;11.684;2023-02-18T14:53:04;5.90;99.90
7296;DHT22;40758;54.038;11.684;2023-02-18T14:55:37;6.10;99.90
7296;DHT22;40758;54.038;11.684;2023-02-18T14:58:12;6.50;99.90
7296;DHT22;40758;54.038;11.684;2023-02-18T15:00:51;6.70;99.90
7296;DHT22;40758;54.038;11.684;2023-02-18T15:03:20;6.50;99.90
7296;DHT22;40758;54.038;11.684;2023-02-18T15:05:49;6.10;99.90
7296;DHT22;40758;54.038;11.684;2023-02-18T15:08:18;5.80;99.90
7296;DHT22;40758;54.038;11.684;2023-02-18T15:10:49;5.50;99.90
7296;DHT22;40758;54.038;11.684;2023-02-18T15:13:20;5.40;99.90
7296;DHT22;40758;54.038;11.684;2023-02-18T15:15:54;5.30;99.90
7296;DHT22;40758;54.038;11.684;2023-02-18T15:18:26;5.30;99.90
7296;DHT22;40758;54.038;11.684;2023-02-18T15:20:59;5.10;99.90
7296;DHT22;40758;54.038;11.684;2023-02-18T15:23:28;4.90;99.90
7296;DHT22;40758;54.038;11.684;2023-02-18T15:25:57;4.90;99.90
7296;DHT22;40758;54.038;11.684;2023-02-18T15:28:27;4.90;99.90
7296;DHT22;40758;54.038;11.684;2023-02-18T15:30:59;4.90;99.90
7296;DHT22;40758;54.038;11.684;2023-02-18T15:33:29;4.90;99.90
7296;DHT22;40758;54.038;11.684;2023-02-18T15:36:00;4.80;99.90
7296;DHT22;40758;54.038;11.684;2023-02-18T15:38:29;4.70;99.90
7296;DHT22;40758;54.038;11.684;2023-02-18T15:40:58;4.60;99.90
7296;DHT22;40758;54.038;11.684;2023-02-18T15:43:28;4.50;99.90
7296;DHT22;40758;54.038;11.684;2023-02-18T15:45:57;4.30;99.90
7296;DHT22;40758;54.038;11.684;2023-02-18T15:48:42;4.20;99.90
7296;DHT22;40758;54.038;11.684;2023-02-18T15:51:13;4.10;99.90
7296;DHT22;40758;54.038;11.684;2023-02-18T15:53:48;4.00;99.90
7296;DHT22;40758;54.038;11.684;2023-02-18T15:56:20;4.00;99.90
7296;DHT22;40758;54.038;11.684;2023-02-18T16:01:46;4.00;99.90
7296;DHT22;40758;54.038;11.684;2023-02-18T16:04:18;3.90;99.90
7296;DHT22;40758;54.038;11.684;2023-02-18T16:06:48;3.90;99.90
7296;DHT22;40758;54.038;11.684;2023-02-18T16:09:18;3.80;99.90
7296;DHT22;40758;54.038;11.684;2023-02-18T16:11:52;3.80;99.90
7296;DHT22;40758;54.038;11.684;2023-02-18T16:14:28;3.70;99.90
7296;DHT22;40758;54.038;11.684;2023-02-18T16:17:08;3.60;99.90
7296;DHT22;40758;54.038;11.684;2023-02-18T16:19:48;3.70;99.90
7296;DHT22;40758;54.038;11.684;2023-02-18T16:22:34;3.70;99.90
7296;DHT22;40758;54.038;11.684;2023-02-18T16:25:09;3.80;99.90
7296;DHT22;40758;54.038;11.684;2023-02-18T16:27:48;3.80;99.90
7296;DHT22;40758;54.038;11.684;2023-02-18T16:30:20;3.90;99.90
7296;DHT22;40758;54.038;11.684;2023-02-18T16:32:49;3.90;99.90
7296;DHT22;40758;54.038;11.684;2023-02-18T16:35:20;3.90;99.90
7296;DHT22;40758;54.038;11.684;2023-02-18T16:37:54;3.90;99.90
7296;DHT22;40758;54.038;11.684;2023-02-18T16:40:25;3.90;99.90
7296;DHT22;40758;54.038;11.684;2023-02-18T16:42:56;3.80;99.90
7296;DHT22;40758;54.038;11.684;2023-02-18T16:45:35;3.90;99.90
7296;DHT22;40758;54.038;11.684;2023-02-18T16:48:06;4.00;99.90
7296;DHT22;40758;54.038;11.684;2023-02-18T16:50:43;4.20;99.90
7296;DHT22;40758;54.038;11.684;2023-02-18T16:53:12;4.20;99.90
7296;DHT22;40758;54.038;11.684;2023-02-18T16:55:40;4.40;99.90